createdAt,value
2019-01-14T00:01:23.455Z,7.60
2019-01-14T00:06:19.739Z,7.60
2019-01-14T00:11:14.983Z,7.60
2019-01-14T00:13:43.449Z,7.70
2019-01-14T00:16:11.371Z,7.60
2019-01-14T00:18:39.324Z,7.70
2019-01-14T00:21:07.592Z,7.60
2019-01-14T00:23:35.558Z,7.60
2019-01-14T00:26:04.072Z,7.60
2019-01-14T00:28:32.369Z,7.50
2019-01-14T00:33:28.608Z,7.60
2019-01-14T00:35:56.928Z,7.60
2019-01-14T00:40:53.663Z,7.60
2019-01-14T00:43:22.200Z,7.60
2019-01-14T00:45:50.501Z,7.60
2019-01-14T00:48:18.800Z,7.50
2019-01-14T00:53:14.958Z,7.50
2019-01-14T00:58:11.116Z,7.50
2019-01-14T01:00:39.453Z,7.50
2019-01-14T01:03:07.410Z,7.50
2019-01-14T01:05:35.336Z,7.50
2019-01-14T01:10:30.265Z,7.50
2019-01-14T01:15:25.700Z,7.40
2019-01-14T01:17:53.727Z,7.40
2019-01-14T01:20:21.856Z,7.50
2019-01-14T01:25:18.299Z,7.50
2019-01-14T01:27:46.709Z,7.50
2019-01-14T01:30:16.293Z,7.40
2019-01-14T01:32:44.364Z,7.50
2019-01-14T01:35:13.212Z,7.50
2019-01-14T01:37:41.503Z,7.50
2019-01-14T01:40:12.769Z,7.40
2019-01-14T01:42:41.030Z,7.40
2019-01-14T01:45:09.236Z,7.40
2019-01-14T01:47:37.568Z,7.40
2019-01-14T01:50:06.002Z,7.40
2019-01-14T01:55:01.832Z,7.40
2019-01-14T01:59:58.443Z,7.40
2019-01-14T02:02:25.990Z,7.40
2019-01-14T02:04:53.656Z,7.40
2019-01-14T02:07:21.565Z,7.30
2019-01-14T02:09:49.947Z,7.30
2019-01-14T02:12:17.569Z,7.30
2019-01-14T02:14:45.511Z,7.30
2019-01-14T02:17:13.780Z,7.30
2019-01-14T02:22:09.220Z,7.30
2019-01-14T02:24:37.850Z,7.20
2019-01-14T02:29:33.572Z,7.20
2019-01-14T02:32:01.207Z,7.20
2019-01-14T02:34:29.509Z,7.30
2019-01-14T02:39:25.036Z,7.20
2019-01-14T02:41:53.434Z,7.20
2019-01-14T02:44:22.108Z,7.10
2019-01-14T02:46:50.458Z,6.90
2019-01-14T02:49:18.480Z,6.80
2019-01-14T02:51:46.514Z,6.80
2019-01-14T02:54:14.352Z,6.70
2019-01-14T02:56:42.299Z,6.70
2019-01-14T02:59:09.933Z,6.70
2019-01-14T03:06:34.537Z,6.70
2019-01-14T03:11:31.303Z,6.70
2019-01-14T03:13:59.911Z,6.70
2019-01-14T03:16:27.562Z,6.70
2019-01-14T03:18:56.138Z,6.80
2019-01-14T03:21:24.327Z,6.70
2019-01-14T03:26:20.969Z,6.80
2019-01-14T03:28:51.047Z,6.90
2019-01-14T03:31:21.104Z,6.90
2019-01-14T03:33:49.175Z,6.90
2019-01-14T03:36:17.230Z,6.90
2019-01-14T03:38:45.155Z,6.90
2019-01-14T03:41:12.783Z,6.90
2019-01-14T03:43:41.107Z,6.90
2019-01-14T03:46:08.999Z,6.90
2019-01-14T03:48:37.084Z,7.00
2019-01-14T03:51:05.472Z,7.00
2019-01-14T03:53:32.987Z,6.90
2019-01-14T04:00:57.119Z,7.00
2019-01-14T04:03:24.762Z,7.00
2019-01-14T04:08:20.927Z,6.90
2019-01-14T04:10:49.114Z,7.00
2019-01-14T04:13:17.064Z,7.10
2019-01-14T04:18:13.916Z,7.10
2019-01-14T04:20:42.601Z,7.20
2019-01-14T04:23:10.903Z,7.20
2019-01-14T04:25:39.243Z,7.20
2019-01-14T04:28:06.876Z,7.10
2019-01-14T04:30:34.813Z,7.10
2019-01-14T04:33:02.422Z,7.10
2019-01-14T04:35:30.417Z,7.10
2019-01-14T04:37:58.678Z,7.10
2019-01-14T04:40:26.699Z,7.20
2019-01-14T04:42:54.727Z,7.20
2019-01-14T04:45:23.277Z,7.20
2019-01-14T04:47:51.885Z,7.20
2019-01-14T04:50:21.119Z,7.20
2019-01-14T04:55:17.363Z,7.20
2019-01-14T04:57:45.375Z,7.20
2019-01-14T05:00:19.536Z,7.20
2019-01-14T05:02:47.903Z,7.20
2019-01-14T05:05:15.666Z,7.20
2019-01-14T05:07:43.925Z,7.20
2019-01-14T05:12:39.333Z,7.20
2019-01-14T05:15:09.065Z,7.20
2019-01-14T05:20:07.157Z,7.10
2019-01-14T05:22:35.790Z,7.10
2019-01-14T05:25:04.155Z,7.10
2019-01-14T05:32:28.655Z,7.20
2019-01-14T05:34:57.432Z,7.20
2019-01-14T05:37:25.746Z,7.20
2019-01-14T05:39:53.777Z,7.20
2019-01-14T05:42:22.438Z,7.20
2019-01-14T05:49:47.503Z,7.00
2019-01-14T05:52:15.151Z,7.00
2019-01-14T05:54:43.448Z,7.00
2019-01-14T05:57:12.136Z,7.10
2019-01-14T06:04:35.878Z,7.00
2019-01-14T06:07:03.558Z,7.00
2019-01-14T06:09:31.561Z,7.10
2019-01-14T06:11:59.962Z,7.20
2019-01-14T06:19:24.696Z,7.10
2019-01-14T06:21:52.721Z,7.10
2019-01-14T06:24:20.372Z,7.00
2019-01-14T06:26:48.659Z,7.10
2019-01-14T06:31:44.663Z,6.90
2019-01-14T06:34:12.666Z,6.80
2019-01-14T06:36:40.426Z,6.90
2019-01-14T06:39:09.903Z,6.80
2019-01-14T06:41:37.876Z,6.90
2019-01-14T06:44:05.621Z,6.80
2019-01-14T06:46:33.938Z,6.80
2019-01-14T06:49:03.845Z,6.80
2019-01-14T06:51:31.779Z,6.80
2019-01-14T06:54:00.426Z,6.80
2019-01-14T06:56:28.422Z,6.80
2019-01-14T06:58:55.689Z,6.90
2019-01-14T07:01:23.360Z,7.00
2019-01-14T07:06:19.357Z,6.90
2019-01-14T07:08:47.659Z,6.90
2019-01-14T07:11:15.823Z,6.90
2019-01-14T07:13:43.989Z,6.90
2019-01-14T07:16:11.648Z,6.90
2019-01-14T07:18:39.700Z,6.90
2019-01-14T07:23:36.309Z,6.90
2019-01-14T07:26:04.339Z,6.90
2019-01-14T07:31:00.688Z,6.90
2019-01-14T07:33:29.329Z,6.90
2019-01-14T07:38:25.550Z,6.90
2019-01-14T07:40:53.474Z,6.90
2019-01-14T07:43:21.831Z,6.90
2019-01-14T07:48:18.179Z,6.90
2019-01-14T07:50:46.176Z,6.90
2019-01-14T07:53:14.474Z,6.90
2019-01-14T07:55:42.395Z,6.90
2019-01-14T07:58:10.133Z,6.80
2019-01-14T08:00:38.108Z,6.80
2019-01-14T08:03:06.443Z,6.80
2019-01-14T08:05:34.353Z,6.80
2019-01-14T08:10:30.410Z,6.80
2019-01-14T08:12:58.150Z,6.80
2019-01-14T08:15:26.125Z,6.80
2019-01-14T08:17:54.121Z,6.80
2019-01-14T08:20:22.486Z,6.80
2019-01-14T08:25:18.511Z,6.80
2019-01-14T08:27:47.206Z,6.90
2019-01-14T08:35:15.903Z,6.90
2019-01-14T08:37:43.691Z,6.80
2019-01-14T08:40:12.407Z,6.80
2019-01-14T08:42:40.753Z,6.90
2019-01-14T08:45:10.086Z,7.00
2019-01-14T08:47:38.039Z,7.10
2019-01-14T08:50:09.614Z,7.10
2019-01-14T08:52:37.679Z,7.10
2019-01-14T08:55:06.147Z,7.10
2019-01-14T08:57:35.124Z,7.10
2019-01-14T09:00:03.936Z,7.20
2019-01-14T09:02:31.880Z,7.20
2019-01-14T09:07:27.836Z,7.30
2019-01-14T09:12:23.352Z,7.40
2019-01-14T09:14:51.643Z,7.40
2019-01-14T09:17:19.251Z,7.50
2019-01-14T09:22:15.963Z,7.60
2019-01-14T09:24:44.551Z,7.70
2019-01-14T09:27:13.082Z,7.60
2019-01-14T09:29:40.689Z,7.50
2019-01-14T09:37:04.717Z,7.30
2019-01-14T09:42:01.651Z,7.40
2019-01-14T09:44:30.493Z,7.60
2019-01-14T09:47:02.386Z,7.30
2019-01-14T09:49:31.537Z,7.20
2019-01-14T09:54:27.615Z,7.20
2019-01-14T09:56:55.548Z,7.20
2019-01-14T09:59:23.098Z,7.30
2019-01-14T10:04:18.773Z,7.40
2019-01-14T10:09:15.062Z,7.20
2019-01-14T10:11:43.746Z,7.30
2019-01-14T10:16:40.224Z,7.40
2019-01-14T10:19:08.679Z,7.30
2019-01-14T10:24:05.012Z,7.40
2019-01-14T10:29:01.571Z,7.30
2019-01-14T10:31:29.767Z,7.40
2019-01-14T10:33:58.065Z,7.40
2019-01-14T10:38:55.022Z,7.60
2019-01-14T10:41:23.292Z,7.60
2019-01-14T10:43:51.616Z,7.60
2019-01-14T10:46:19.863Z,7.80
2019-01-14T10:48:47.733Z,8.10
2019-01-14T10:51:16.122Z,8.20
2019-01-14T10:53:44.480Z,8.30
2019-01-14T10:58:41.062Z,8.10
2019-01-14T11:01:08.950Z,8.00
2019-01-14T11:03:39.369Z,7.90
2019-01-14T11:08:34.671Z,7.70
2019-01-14T11:11:02.570Z,7.70
2019-01-14T11:13:30.483Z,7.70
2019-01-14T11:15:58.179Z,7.70
2019-01-14T11:18:26.014Z,8.10
2019-01-14T11:20:54.018Z,8.60
2019-01-14T11:23:21.579Z,10.20
2019-01-14T11:25:49.859Z,10.30
2019-01-14T11:28:17.919Z,9.90
2019-01-14T11:35:41.713Z,13.40
2019-01-14T11:38:42.384Z,13.20
2019-01-14T11:43:37.930Z,17.30
2019-01-14T11:46:06.551Z,18.50
2019-01-14T11:48:34.579Z,19.10
2019-01-14T11:51:02.488Z,19.10
2019-01-14T11:53:30.771Z,19.10
2019-01-14T11:58:26.605Z,19.80
2019-01-14T12:00:54.526Z,19.90
2019-01-14T12:03:22.561Z,20.10
2019-01-14T12:05:51.024Z,20.30
2019-01-14T12:08:20.987Z,20.40
2019-01-14T12:10:48.471Z,19.70
2019-01-14T12:13:16.466Z,20.00
2019-01-14T12:15:44.118Z,19.80
2019-01-14T12:18:12.083Z,18.90
2019-01-14T12:20:39.643Z,18.30
2019-01-14T12:25:35.475Z,18.60
2019-01-14T12:30:34.167Z,18.20
2019-01-14T12:35:29.865Z,17.20
2019-01-14T12:37:57.230Z,17.20
2019-01-14T12:42:53.304Z,16.50
2019-01-14T12:45:22.120Z,15.80
2019-01-14T12:47:51.020Z,15.10
2019-01-14T12:52:46.779Z,14.00
2019-01-14T12:55:16.120Z,13.40
2019-01-14T12:57:44.214Z,13.00
2019-01-14T13:00:17.642Z,12.30
2019-01-14T13:05:14.307Z,12.40
2019-01-14T13:10:10.317Z,11.50
2019-01-14T13:12:38.638Z,11.20
2019-01-14T13:15:10.484Z,11.80
2019-01-14T13:20:07.236Z,14.40
2019-01-14T13:27:31.104Z,14.50
2019-01-14T13:29:58.823Z,14.00
2019-01-14T13:32:26.199Z,13.50
2019-01-14T13:34:54.923Z,13.20
2019-01-14T13:37:22.932Z,12.30
2019-01-14T13:39:52.578Z,11.30
2019-01-14T13:44:48.413Z,10.10
2019-01-14T13:47:16.738Z,9.60
2019-01-14T13:49:45.762Z,9.40
2019-01-14T13:52:13.804Z,9.20
2019-01-14T13:54:41.531Z,9.20
2019-01-14T13:57:09.752Z,9.10
2019-01-14T13:59:43.362Z,9.00
2019-01-14T14:02:13.318Z,9.10
2019-01-14T14:04:41.673Z,9.10
2019-01-14T14:07:09.627Z,9.10
2019-01-14T14:12:09.326Z,9.40
2019-01-14T14:19:40.453Z,9.50
2019-01-14T14:22:11.790Z,9.20
2019-01-14T14:24:41.312Z,8.90
2019-01-14T14:27:13.398Z,8.70
2019-01-14T14:29:41.517Z,8.40
2019-01-14T14:32:12.822Z,8.20
2019-01-14T14:34:43.191Z,8.10
2019-01-14T14:37:18.428Z,7.90
2019-01-14T14:39:49.464Z,7.90
2019-01-14T14:42:18.975Z,7.90
2019-01-14T14:44:48.423Z,7.90
2019-01-14T14:47:16.988Z,7.90
2019-01-14T14:49:44.260Z,7.90
2019-01-14T14:52:13.424Z,7.80
2019-01-14T14:54:45.451Z,7.90
2019-01-14T14:57:13.451Z,8.00
2019-01-14T14:59:44.075Z,7.90
2019-01-14T15:02:14.370Z,7.90
2019-01-14T15:09:48.004Z,7.80
2019-01-14T15:14:47.134Z,7.70
2019-01-14T15:19:45.526Z,7.70
2019-01-14T15:22:18.271Z,7.80
2019-01-14T15:24:49.533Z,7.70
2019-01-14T15:27:19.851Z,7.60
2019-01-14T15:29:51.678Z,7.60
2019-01-14T15:32:21.219Z,7.60
2019-01-14T15:34:50.254Z,7.70
2019-01-14T15:37:18.784Z,8.00
2019-01-14T15:39:48.765Z,8.10
2019-01-14T15:42:16.979Z,8.20
2019-01-14T15:47:14.145Z,8.30
2019-01-14T15:52:25.040Z,8.10
2019-01-14T15:54:53.391Z,7.90
2019-01-14T15:57:23.466Z,7.70
2019-01-14T15:59:51.500Z,7.50
2019-01-14T16:02:23.813Z,7.30
2019-01-14T16:10:10.383Z,7.00
2019-01-14T16:12:36.468Z,7.00
2019-01-14T16:15:15.789Z,6.90
2019-01-14T16:20:16.630Z,6.90
2019-01-14T16:22:45.589Z,7.00
2019-01-14T16:25:24.162Z,6.90
2019-01-14T16:37:56.380Z,6.80
2019-01-14T16:40:30.189Z,6.80
2019-01-14T16:42:58.582Z,6.70
2019-01-14T16:45:27.498Z,6.60
2019-01-14T16:47:55.694Z,6.50
2019-01-14T16:52:52.293Z,6.50
2019-01-14T16:55:45.813Z,6.50
2019-01-14T16:58:14.189Z,6.40
2019-01-14T17:00:42.662Z,6.40
2019-01-14T17:03:11.191Z,6.40
2019-01-14T17:05:39.763Z,6.50
2019-01-14T17:08:07.958Z,7.30
2019-01-14T17:10:36.472Z,6.40
2019-01-14T17:13:04.824Z,6.30
2019-01-14T17:15:32.226Z,6.30
2019-01-14T17:25:26.547Z,6.50
2019-01-14T17:27:54.319Z,6.50
2019-01-14T17:30:23.147Z,6.40
2019-01-14T17:32:51.618Z,6.30
2019-01-14T17:40:17.347Z,6.30
2019-01-14T17:45:14.081Z,6.10
2019-01-14T17:47:42.830Z,6.20
2019-01-14T17:52:40.883Z,6.10
2019-01-14T17:57:38.438Z,6.00
2019-01-14T18:02:37.335Z,5.90
2019-01-14T18:05:05.454Z,5.90
2019-01-14T18:07:33.899Z,5.90
2019-01-14T18:12:29.153Z,5.80
2019-01-14T18:14:57.233Z,5.80
2019-01-14T18:22:21.874Z,5.80
2019-01-14T18:24:55.086Z,5.80
2019-01-14T18:32:20.040Z,5.60
2019-01-14T18:34:48.809Z,5.60
2019-01-14T18:42:13.322Z,5.70
2019-01-14T18:47:10.513Z,5.60
2019-01-14T18:57:02.481Z,5.60
2019-01-14T19:01:58.311Z,5.50
2019-01-14T19:06:54.828Z,5.50
2019-01-14T19:09:22.491Z,5.40
2019-01-14T19:11:50.949Z,5.40
2019-01-14T19:16:47.458Z,5.50
2019-01-14T19:19:15.480Z,5.60
2019-01-14T19:21:43.602Z,5.60
2019-01-14T19:24:11.299Z,5.60
2019-01-14T19:26:41.249Z,5.70
2019-01-14T19:29:09.070Z,5.60
2019-01-14T19:34:04.725Z,5.50
2019-01-14T19:36:33.112Z,5.30
2019-01-14T19:46:26.674Z,5.30
2019-01-14T20:06:09.284Z,5.30
2019-01-14T20:08:38.100Z,5.20
2019-01-14T20:11:09.275Z,5.40
2019-01-14T20:16:06.416Z,5.40
2019-01-14T20:21:02.329Z,5.40
2019-01-14T20:23:30.696Z,5.40
2019-01-14T20:25:59.397Z,5.40
2019-01-14T20:30:55.715Z,5.40
2019-01-14T20:33:26.364Z,5.40
2019-01-14T20:35:55.798Z,5.30
2019-01-14T20:40:51.779Z,5.40
2019-01-14T20:45:48.027Z,5.40
2019-01-14T20:53:13.780Z,5.50
2019-01-14T21:00:41.765Z,5.40
2019-01-14T21:03:18.764Z,5.30
2019-01-14T21:05:49.534Z,5.30
2019-01-14T21:08:18.177Z,5.30
2019-01-14T21:10:46.332Z,5.40
2019-01-14T21:13:15.091Z,5.40
2019-01-14T21:15:43.154Z,5.40
2019-01-14T21:20:39.365Z,5.40
2019-01-14T21:23:07.211Z,5.40
2019-01-14T21:25:35.916Z,5.50
2019-01-14T21:28:03.637Z,5.70
2019-01-14T21:30:31.430Z,5.40
2019-01-14T21:32:59.778Z,5.40
2019-01-14T21:35:28.014Z,5.40
2019-01-14T21:37:57.883Z,5.40
2019-01-14T21:40:25.699Z,5.40
2019-01-14T21:42:53.101Z,5.40
2019-01-14T21:47:50.176Z,5.50
2019-01-14T21:50:18.112Z,5.50
2019-01-14T21:52:46.266Z,5.50
2019-01-14T21:55:16.176Z,5.50
2019-01-14T21:57:43.852Z,5.50
2019-01-14T22:00:14.304Z,5.50
2019-01-14T22:02:42.360Z,5.50
2019-01-14T22:05:10.116Z,5.50
2019-01-14T22:07:38.390Z,5.50
2019-01-14T22:10:09.116Z,5.50
2019-01-14T22:12:36.749Z,5.50
2019-01-14T22:15:05.519Z,5.50
2019-01-14T22:17:35.808Z,5.40
2019-01-14T22:20:08.025Z,5.40
2019-01-14T22:22:35.997Z,5.50
2019-01-14T22:25:05.568Z,5.50
2019-01-14T22:27:34.441Z,5.40
2019-01-14T22:30:02.540Z,5.50
2019-01-14T22:32:30.814Z,5.50
2019-01-14T22:34:59.382Z,5.50
2019-01-14T22:37:28.017Z,5.50
2019-01-14T22:39:56.269Z,5.50
2019-01-14T22:42:24.121Z,5.50
2019-01-14T22:44:53.930Z,5.40
2019-01-14T22:47:21.675Z,5.40
2019-01-14T22:57:14.905Z,5.50
2019-01-14T22:59:42.580Z,5.50
2019-01-14T23:02:11.475Z,5.50
2019-01-14T23:04:38.976Z,5.40
2019-01-14T23:07:08.217Z,5.40
2019-01-14T23:09:36.313Z,5.40
2019-01-14T23:14:32.493Z,5.30
2019-01-14T23:17:00.992Z,5.30
2019-01-14T23:19:29.084Z,5.30
2019-01-14T23:21:57.144Z,5.30
2019-01-14T23:24:25.598Z,5.40
2019-01-14T23:26:54.214Z,5.40
2019-01-14T23:29:22.516Z,5.50
2019-01-14T23:31:50.482Z,5.40
2019-01-14T23:34:18.948Z,5.30
2019-01-14T23:36:47.358Z,5.40
2019-01-14T23:41:43.594Z,5.10
2019-01-14T23:46:40.949Z,5.30
2019-01-14T23:49:09.431Z,5.30
2019-01-14T23:56:34.218Z,5.30
2019-01-14T23:59:02.376Z,5.30
